createdAt,value
2018-02-16T00:00:58.846Z,37.30
2018-02-16T00:03:27.130Z,38.50
2018-02-16T00:05:55.390Z,37.60
2018-02-16T00:08:22.912Z,38.07
2018-02-16T00:10:50.409Z,37.90
2018-02-16T00:13:17.910Z,36.30
2018-02-16T00:15:45.430Z,35.90
2018-02-16T00:18:13.698Z,36.87
2018-02-16T00:20:41.215Z,35.93
2018-02-16T00:23:08.714Z,36.40
2018-02-16T00:25:36.238Z,37.93
2018-02-16T00:28:03.741Z,38.40
2018-02-16T00:30:32.007Z,36.93
2018-02-16T00:33:01.033Z,36.90
2018-02-16T00:35:28.529Z,37.10
2018-02-16T00:37:56.045Z,36.60
2018-02-16T00:40:23.538Z,35.37
2018-02-16T00:42:51.061Z,37.40
2018-02-16T00:45:18.557Z,37.17
2018-02-16T00:47:46.054Z,37.17
2018-02-16T00:50:13.575Z,38.60
2018-02-16T00:52:41.073Z,39.00
2018-02-16T00:55:09.357Z,41.13
2018-02-16T00:57:37.706Z,38.17
2018-02-16T01:00:05.230Z,38.60
2018-02-16T01:02:32.734Z,40.67
2018-02-16T01:05:00.251Z,39.57
2018-02-16T01:07:27.774Z,39.57
2018-02-16T01:09:56.038Z,40.30
2018-02-16T01:12:23.562Z,41.17
2018-02-16T01:14:51.065Z,38.23
2018-02-16T01:17:19.346Z,39.10
2018-02-16T01:19:47.617Z,38.70
2018-02-16T01:22:15.882Z,38.77
2018-02-16T01:24:43.401Z,37.70
2018-02-16T01:27:10.902Z,37.80
2018-02-16T01:29:39.194Z,38.30
2018-02-16T01:32:07.462Z,37.90
2018-02-16T01:34:35.751Z,40.83
2018-02-16T01:37:03.249Z,37.60
2018-02-16T01:39:30.742Z,37.53
2018-02-16T01:41:58.262Z,39.63
2018-02-16T01:44:25.761Z,36.03
2018-02-16T01:46:54.046Z,37.13
2018-02-16T01:49:22.316Z,36.87
2018-02-16T01:51:49.833Z,38.80
2018-02-16T01:54:17.333Z,37.27
2018-02-16T01:56:45.605Z,37.87
2018-02-16T01:59:14.631Z,38.27
2018-02-16T02:01:42.125Z,38.57
2018-02-16T02:04:09.642Z,37.03
2018-02-16T02:06:37.137Z,37.13
2018-02-16T02:09:04.663Z,38.63
2018-02-16T02:11:32.166Z,40.30
2018-02-16T02:13:59.662Z,40.07
2018-02-16T02:16:27.954Z,37.30
2018-02-16T02:18:55.445Z,36.17
2018-02-16T02:21:22.959Z,37.97
2018-02-16T02:23:51.218Z,36.90
2018-02-16T02:26:19.122Z,38.30
2018-02-16T02:28:46.622Z,37.03
2018-02-16T02:31:14.118Z,38.70
2018-02-16T02:33:42.414Z,36.63
2018-02-16T02:36:09.920Z,35.70
2018-02-16T02:38:37.440Z,34.60
2018-02-16T02:41:04.941Z,36.00
2018-02-16T02:43:32.462Z,35.60
2018-02-16T02:45:59.963Z,36.93
2018-02-16T02:48:27.457Z,36.10
2018-02-16T02:50:54.974Z,36.67
2018-02-16T02:53:22.474Z,37.50
2018-02-16T02:55:49.994Z,35.10
2018-02-16T02:58:17.495Z,36.80
2018-02-16T03:00:45.022Z,36.97
2018-02-16T03:03:12.513Z,36.17
2018-02-16T03:05:40.006Z,35.33
2018-02-16T03:08:07.517Z,37.27
2018-02-16T03:10:35.778Z,38.67
2018-02-16T03:13:04.066Z,37.10
2018-02-16T03:15:32.333Z,34.53
2018-02-16T03:18:00.620Z,36.50
2018-02-16T03:20:28.890Z,35.20
2018-02-16T03:22:57.161Z,35.00
2018-02-16T03:25:25.441Z,36.60
2018-02-16T03:27:53.712Z,35.30
2018-02-16T03:30:21.993Z,35.10
2018-02-16T03:32:50.253Z,36.57
2018-02-16T03:35:17.778Z,38.87
2018-02-16T03:37:45.269Z,35.90
2018-02-16T03:40:12.761Z,37.07
2018-02-16T03:42:40.278Z,36.73
2018-02-16T03:45:07.777Z,36.07
2018-02-16T03:47:35.290Z,36.77
2018-02-16T03:50:02.781Z,35.50
2018-02-16T03:52:31.065Z,36.53
2018-02-16T03:54:59.330Z,35.80
2018-02-16T03:57:27.594Z,35.27
2018-02-16T03:59:55.115Z,35.27
2018-02-16T04:02:22.613Z,33.20
2018-02-16T04:04:50.125Z,37.50
2018-02-16T04:07:17.626Z,70.87
2018-02-16T04:09:45.145Z,35.80
2018-02-16T04:12:12.642Z,35.77
2018-02-16T04:14:40.133Z,36.50
2018-02-16T04:17:07.654Z,36.87
2018-02-16T04:19:35.149Z,35.40
2018-02-16T04:22:02.670Z,36.30
2018-02-16T04:24:30.929Z,35.60
2018-02-16T04:26:58.450Z,37.90
2018-02-16T04:29:25.949Z,35.17
2018-02-16T04:31:53.447Z,36.37
2018-02-16T04:34:21.738Z,36.37
2018-02-16T04:36:49.234Z,36.00
2018-02-16T04:39:16.753Z,35.90
2018-02-16T04:41:44.245Z,35.93
2018-02-16T04:44:11.765Z,36.97
2018-02-16T04:46:39.257Z,35.00
2018-02-16T04:49:06.762Z,34.77
2018-02-16T04:51:35.051Z,35.30
2018-02-16T04:54:03.317Z,36.70
2018-02-16T04:56:31.601Z,37.00
2018-02-16T04:58:59.865Z,35.60
2018-02-16T05:01:28.154Z,36.40
2018-02-16T05:03:56.421Z,37.83
2018-02-16T05:06:24.681Z,37.07
2018-02-16T05:08:52.205Z,37.27
2018-02-16T05:11:19.697Z,36.90
2018-02-16T05:13:47.209Z,37.53
2018-02-16T05:16:14.701Z,39.20
2018-02-16T05:18:42.217Z,37.20
2018-02-16T05:21:09.714Z,37.40
2018-02-16T05:23:37.205Z,39.10
2018-02-16T05:26:05.485Z,37.63
2018-02-16T05:28:33.741Z,40.07
2018-02-16T05:31:01.261Z,39.77
2018-02-16T05:33:28.758Z,37.70
2018-02-16T05:35:56.273Z,39.93
2018-02-16T05:38:23.777Z,39.37
2018-02-16T05:40:51.283Z,39.73
2018-02-16T05:43:18.806Z,40.43
2018-02-16T05:45:47.066Z,39.90
2018-02-16T05:48:14.589Z,39.47
2018-02-16T05:50:42.090Z,39.60
2018-02-16T05:53:09.586Z,37.73
2018-02-16T05:55:37.105Z,41.37
2018-02-16T05:58:04.597Z,39.60
2018-02-16T06:00:32.121Z,41.50
2018-02-16T06:02:59.613Z,41.03
2018-02-16T06:05:27.113Z,40.77
2018-02-16T06:07:54.635Z,40.40
2018-02-16T06:10:22.133Z,41.17
2018-02-16T06:12:49.653Z,42.90
2018-02-16T06:15:17.158Z,41.20
2018-02-16T06:17:44.661Z,40.97
2018-02-16T06:20:12.185Z,40.77
2018-02-16T06:22:39.681Z,42.30
2018-02-16T06:25:07.201Z,41.80
2018-02-16T06:27:34.703Z,39.90
2018-02-16T06:30:02.198Z,35.87
2018-02-16T06:32:29.717Z,36.53
2018-02-16T06:34:57.209Z,32.10
2018-02-16T06:37:24.730Z,30.33
2018-02-16T06:39:52.226Z,31.53
2018-02-16T06:42:19.730Z,30.20
2018-02-16T06:44:48.009Z,30.13
2018-02-16T06:47:16.277Z,29.80
2018-02-16T06:49:44.565Z,29.50
2018-02-16T06:52:12.826Z,29.40
2018-02-16T06:54:40.322Z,31.23
2018-02-16T06:57:07.893Z,29.90
2018-02-16T06:59:36.125Z,27.13
2018-02-16T07:02:04.405Z,26.70
2018-02-16T07:04:32.661Z,26.27
2018-02-16T07:07:00.153Z,25.07
2018-02-16T07:09:27.673Z,27.10
2018-02-16T07:11:56.678Z,23.13
2018-02-16T07:14:24.189Z,22.73
2018-02-16T07:16:51.689Z,18.97
2018-02-16T07:19:19.184Z,21.77
2018-02-16T07:21:46.697Z,21.90
2018-02-16T07:24:14.194Z,19.43
2018-02-16T07:26:42.473Z,17.40
2018-02-16T07:29:10.734Z,18.63
2018-02-16T07:31:38.993Z,21.20
2018-02-16T07:34:06.514Z,17.53
2018-02-16T07:36:34.015Z,18.27
2018-02-16T07:39:02.376Z,16.80
2018-02-16T07:41:29.849Z,17.00
2018-02-16T07:43:58.114Z,19.27
2018-02-16T07:46:25.633Z,19.30
2018-02-16T07:48:53.130Z,18.57
2018-02-16T07:51:20.658Z,19.20
2018-02-16T07:53:48.157Z,15.50
2018-02-16T07:56:15.657Z,16.07
2018-02-16T07:58:43.178Z,19.20
2018-02-16T08:01:12.177Z,20.40
2018-02-16T08:03:39.695Z,21.87
2018-02-16T08:06:07.194Z,24.70
2018-02-16T08:08:35.464Z,25.60
2018-02-16T08:11:03.749Z,24.00
2018-02-16T08:13:32.005Z,21.63
2018-02-16T08:15:59.520Z,21.50
2018-02-16T08:18:27.018Z,18.00
2018-02-16T08:20:54.514Z,19.90
2018-02-16T08:23:22.794Z,18.30
2018-02-16T08:25:51.062Z,18.10
2018-02-16T08:28:19.341Z,19.60
2018-02-16T08:30:47.597Z,20.33
2018-02-16T08:33:15.099Z,19.37
2018-02-16T08:35:42.617Z,17.90
2018-02-16T08:38:10.118Z,18.63
2018-02-16T08:40:37.642Z,24.20
2018-02-16T08:43:05.905Z,18.77
2018-02-16T08:45:33.402Z,17.23
2018-02-16T08:48:01.188Z,16.73
2018-02-16T08:50:28.678Z,17.63
2018-02-16T08:52:56.190Z,19.17
2018-02-16T08:55:23.685Z,18.70
2018-02-16T08:57:51.182Z,16.97
2018-02-16T09:00:19.470Z,15.37
2018-02-16T09:02:46.965Z,17.20
2018-02-16T09:05:14.486Z,18.03
2018-02-16T09:07:41.980Z,17.43
2018-02-16T09:10:09.481Z,18.10
2018-02-16T09:12:37.769Z,16.80
2018-02-16T09:15:06.033Z,21.03
2018-02-16T09:17:34.321Z,17.97
2018-02-16T09:20:02.582Z,21.57
2018-02-16T09:22:30.073Z,19.70
2018-02-16T09:24:57.599Z,19.77
2018-02-16T09:27:25.861Z,17.67
2018-02-16T09:29:53.383Z,19.57
2018-02-16T09:32:20.889Z,19.20
2018-02-16T09:34:48.394Z,21.37
2018-02-16T09:37:16.913Z,21.20
2018-02-16T09:39:45.274Z,22.13
2018-02-16T09:42:12.798Z,25.70
2018-02-16T09:44:40.361Z,23.17
2018-02-16T09:47:07.853Z,27.43
2018-02-16T09:49:35.365Z,20.97
2018-02-16T09:52:03.634Z,20.53
2018-02-16T09:54:31.937Z,20.27
2018-02-16T09:56:59.433Z,20.00
2018-02-16T09:59:26.925Z,20.03
2018-02-16T10:01:55.209Z,20.97
2018-02-16T10:04:23.478Z,17.70
2018-02-16T10:06:51.761Z,21.90
2018-02-16T10:09:20.129Z,20.67
2018-02-16T10:11:48.397Z,17.73
2018-02-16T10:14:15.913Z,16.70
2018-02-16T10:16:43.405Z,16.93
2018-02-16T10:19:10.969Z,16.53
2018-02-16T10:21:38.465Z,17.30
2018-02-16T10:24:05.966Z,16.50
2018-02-16T10:26:33.501Z,15.83
2018-02-16T10:29:00.990Z,16.60
2018-02-16T10:31:28.502Z,16.27
2018-02-16T10:33:56.002Z,23.40
2018-02-16T10:36:23.501Z,16.97
2018-02-16T10:38:51.786Z,18.10
2018-02-16T10:41:19.281Z,19.77
2018-02-16T10:43:46.798Z,18.40
2018-02-16T10:46:14.297Z,17.00
2018-02-16T10:48:41.813Z,19.60
2018-02-16T10:51:10.073Z,18.07
2018-02-16T10:53:38.334Z,20.00
2018-02-16T10:56:05.849Z,17.30
2018-02-16T10:58:33.354Z,19.83
2018-02-16T11:01:06.613Z,18.37
2018-02-16T11:03:37.809Z,18.87
2018-02-16T11:06:11.917Z,18.80
2018-02-16T11:08:45.993Z,15.77
2018-02-16T11:11:13.517Z,16.97
2018-02-16T11:13:41.009Z,16.40
2018-02-16T11:16:08.530Z,15.40
2018-02-16T11:18:36.030Z,17.10
2018-02-16T11:21:03.525Z,14.37
2018-02-16T11:23:31.818Z,15.33
2018-02-16T11:25:59.313Z,15.90
2018-02-16T11:28:26.833Z,14.17
2018-02-16T11:30:54.325Z,14.30
2018-02-16T11:33:21.813Z,14.20
2018-02-16T11:35:49.330Z,15.43
2018-02-16T11:38:17.593Z,15.77
2018-02-16T11:40:45.109Z,15.30
2018-02-16T11:43:12.605Z,16.93
2018-02-16T11:45:40.097Z,15.23
2018-02-16T11:48:07.664Z,15.40
2018-02-16T11:50:35.141Z,15.97
2018-02-16T11:53:02.666Z,16.10
2018-02-16T11:55:30.166Z,16.50
2018-02-16T11:57:58.430Z,17.30
2018-02-16T12:00:25.950Z,15.67
2018-02-16T12:02:53.451Z,15.90
2018-02-16T12:05:20.965Z,16.27
2018-02-16T12:07:48.462Z,16.13
2018-02-16T12:10:15.986Z,16.73
2018-02-16T12:12:43.482Z,16.60
2018-02-16T12:15:10.978Z,16.90
2018-02-16T12:17:38.495Z,15.33
2018-02-16T12:20:05.993Z,16.00
2018-02-16T12:22:33.509Z,15.50
2018-02-16T12:25:01.010Z,14.80
2018-02-16T12:27:28.530Z,15.70
2018-02-16T12:29:57.529Z,13.20
2018-02-16T12:32:25.798Z,12.60
2018-02-16T12:34:53.317Z,12.47
2018-02-16T12:37:20.813Z,12.80
2018-02-16T12:39:48.331Z,13.10
2018-02-16T12:42:15.829Z,14.30
2018-02-16T12:44:43.348Z,13.73
2018-02-16T12:47:10.846Z,13.83
2018-02-16T12:49:38.341Z,16.50
2018-02-16T12:52:06.621Z,15.70
2018-02-16T12:54:34.881Z,17.17
2018-02-16T12:57:03.166Z,16.40
2018-02-16T12:59:31.429Z,15.50
2018-02-16T13:01:58.949Z,16.47
2018-02-16T13:04:26.449Z,15.60
2018-02-16T13:06:54.713Z,15.63
2018-02-16T13:09:22.238Z,16.43
2018-02-16T13:11:49.729Z,15.50
2018-02-16T13:14:17.250Z,15.80
2018-02-16T13:16:44.746Z,16.33
2018-02-16T13:19:13.005Z,16.90
2018-02-16T13:21:40.526Z,15.00
2018-02-16T13:24:08.030Z,15.20
2018-02-16T13:26:35.549Z,14.53
2018-02-16T13:29:03.045Z,14.97
2018-02-16T13:31:30.540Z,14.40
2018-02-16T13:33:58.829Z,14.50
2018-02-16T13:36:26.330Z,13.47
2018-02-16T13:38:53.850Z,13.70
2018-02-16T13:41:21.354Z,13.80
2018-02-16T13:43:48.885Z,15.27
2018-02-16T13:46:16.393Z,15.70
2018-02-16T13:48:44.662Z,16.33
2018-02-16T13:51:13.689Z,14.73
2018-02-16T13:53:41.193Z,14.40
2018-02-16T13:56:08.697Z,14.37
2018-02-16T13:58:36.981Z,14.77
2018-02-16T14:01:04.478Z,14.87
2018-02-16T14:03:31.998Z,16.30
2018-02-16T14:05:59.496Z,14.63
2018-02-16T14:08:26.989Z,15.57
2018-02-16T14:10:55.273Z,14.80
2018-02-16T14:13:23.538Z,13.90
2018-02-16T14:15:51.830Z,15.00
2018-02-16T14:18:20.097Z,15.30
2018-02-16T14:20:48.358Z,16.10
2018-02-16T14:23:15.877Z,14.70
2018-02-16T14:25:43.373Z,15.40
2018-02-16T14:28:10.898Z,14.80
2018-02-16T14:30:38.397Z,14.80
2018-02-16T14:33:05.906Z,14.30
2018-02-16T14:35:33.429Z,14.30
2018-02-16T14:38:01.697Z,15.03
2018-02-16T14:40:30.726Z,14.60
2018-02-16T14:42:58.226Z,15.23
2018-02-16T14:45:25.734Z,14.50
2018-02-16T14:47:53.258Z,17.20
2018-02-16T14:50:20.762Z,15.00
2018-02-16T14:52:48.286Z,13.90
2018-02-16T14:55:16.553Z,15.23
2018-02-16T14:57:44.049Z,15.30
2018-02-16T15:00:11.578Z,13.93
2018-02-16T15:02:39.081Z,14.00
2018-02-16T15:05:06.609Z,14.50
2018-02-16T15:07:34.879Z,14.20
2018-02-16T15:10:03.141Z,13.40
2018-02-16T15:12:30.666Z,13.63
2018-02-16T15:14:58.176Z,13.30
2018-02-16T15:17:26.466Z,15.50
2018-02-16T15:19:54.014Z,13.40
2018-02-16T15:22:21.485Z,14.77
2018-02-16T15:24:49.013Z,13.13
2018-02-16T15:27:16.508Z,14.27
2018-02-16T15:29:44.025Z,16.10
2018-02-16T15:32:11.530Z,16.50
2018-02-16T15:34:39.033Z,17.30
2018-02-16T15:37:06.557Z,16.30
2018-02-16T15:39:34.053Z,17.13
2018-02-16T15:42:01.574Z,19.23
2018-02-16T15:44:29.925Z,17.90
2018-02-16T15:46:57.446Z,18.57
2018-02-16T15:49:24.961Z,18.80
2018-02-16T15:51:52.457Z,18.77
2018-02-16T15:54:19.969Z,18.97
2018-02-16T15:56:47.466Z,19.90
2018-02-16T15:59:14.957Z,18.80
2018-02-16T16:01:43.245Z,18.60
2018-02-16T16:04:11.514Z,20.30
2018-02-16T16:06:39.801Z,19.20
2018-02-16T16:09:08.057Z,21.00
2018-02-16T16:11:35.556Z,20.73
2018-02-16T16:14:03.078Z,21.73
2018-02-16T16:16:31.351Z,21.20
2018-02-16T16:18:58.869Z,20.00
2018-02-16T16:21:26.366Z,20.40
2018-02-16T16:23:53.861Z,20.13
2018-02-16T16:26:21.386Z,21.20
2018-02-16T16:28:48.893Z,20.90
2018-02-16T16:31:16.413Z,21.00
2018-02-16T16:33:44.682Z,20.60
2018-02-16T16:36:12.946Z,20.10
2018-02-16T16:38:41.229Z,20.63
2018-02-16T16:41:08.726Z,20.00
2018-02-16T16:43:36.251Z,21.57
2018-02-16T16:46:04.517Z,21.70
2018-02-16T16:48:32.018Z,21.30
2018-02-16T16:50:59.537Z,21.20
2018-02-16T16:53:27.034Z,25.57
2018-02-16T16:55:54.545Z,23.20
2018-02-16T16:58:22.042Z,21.67
2018-02-16T17:00:49.560Z,21.73
2018-02-16T17:03:17.065Z,22.23
2018-02-16T17:05:44.562Z,23.27
2018-02-16T17:08:12.082Z,23.07
2018-02-16T17:10:39.586Z,25.17
2018-02-16T17:13:07.086Z,23.47
2018-02-16T17:15:35.365Z,23.50
2018-02-16T17:18:03.626Z,25.50
2018-02-16T17:20:31.914Z,22.60
2018-02-16T17:23:00.178Z,23.90
2018-02-16T17:25:28.446Z,24.03
2018-02-16T17:27:55.970Z,20.30
2018-02-16T17:30:23.466Z,20.70
2018-02-16T17:32:51.010Z,20.47
2018-02-16T17:35:18.513Z,20.90
2018-02-16T17:37:46.011Z,24.90
2018-02-16T17:40:13.547Z,21.80
2018-02-16T17:42:41.046Z,22.20
2018-02-16T17:45:08.565Z,23.63
2018-02-16T17:47:36.061Z,22.20
2018-02-16T17:50:03.553Z,22.00
2018-02-16T17:52:31.837Z,25.13
2018-02-16T17:55:00.101Z,24.80
2018-02-16T17:57:28.381Z,24.17
2018-02-16T17:59:56.637Z,25.53
2018-02-16T18:02:24.138Z,25.00
2018-02-16T18:04:51.654Z,25.03
2018-02-16T18:07:19.145Z,25.27
2018-02-16T18:09:46.661Z,26.07
2018-02-16T18:12:14.158Z,25.47
2018-02-16T18:14:41.660Z,23.93
2018-02-16T18:17:09.187Z,23.47
2018-02-16T18:19:36.681Z,25.80
2018-02-16T18:22:04.202Z,24.00
2018-02-16T18:24:31.697Z,23.97
2018-02-16T18:26:59.194Z,24.33
2018-02-16T18:29:27.478Z,23.20
2018-02-16T18:31:55.741Z,23.67
2018-02-16T18:34:24.034Z,24.37
2018-02-16T18:36:52.293Z,23.40
2018-02-16T18:39:20.554Z,23.73
2018-02-16T18:41:48.075Z,25.37
2018-02-16T18:44:15.570Z,27.30
2018-02-16T18:46:43.086Z,26.83
2018-02-16T18:49:10.582Z,27.50
2018-02-16T18:51:38.083Z,33.53
2018-02-16T18:54:05.601Z,30.40
2018-02-16T18:56:33.097Z,31.70
2018-02-16T18:59:01.385Z,27.93
2018-02-16T19:01:28.878Z,28.70
2018-02-16T19:03:56.376Z,28.10
2018-02-16T19:06:24.653Z,27.70
2018-02-16T19:08:52.909Z,27.63
2018-02-16T19:11:20.429Z,28.80
2018-02-16T19:13:47.921Z,27.13
2018-02-16T19:16:15.418Z,26.87
2018-02-16T19:18:43.702Z,30.90
2018-02-16T19:21:11.210Z,31.53
2018-02-16T19:23:38.730Z,27.90
2018-02-16T19:26:06.222Z,28.03
2018-02-16T19:28:33.721Z,28.27
2018-02-16T19:31:02.005Z,29.73
2018-02-16T19:33:29.497Z,31.87
2018-02-16T19:35:57.019Z,31.60
2018-02-16T19:38:25.278Z,32.00
2018-02-16T19:40:53.537Z,30.07
2018-02-16T19:43:21.059Z,36.33
2018-02-16T19:45:48.549Z,36.17
2018-02-16T19:48:16.096Z,33.70
2018-02-16T19:50:43.590Z,34.47
2018-02-16T19:53:11.862Z,31.87
2018-02-16T19:55:40.145Z,31.23
2018-02-16T19:58:08.401Z,30.87
2018-02-16T20:00:35.921Z,29.40
2018-02-16T20:03:03.419Z,30.53
2018-02-16T20:05:30.909Z,29.93
2018-02-16T20:07:59.187Z,35.17
2018-02-16T20:10:26.686Z,33.50
2018-02-16T20:12:54.206Z,32.80
2018-02-16T20:15:21.708Z,31.30
2018-02-16T20:17:49.271Z,30.10
2018-02-16T20:20:16.790Z,30.17
2018-02-16T20:22:44.310Z,32.57
2018-02-16T20:25:11.818Z,34.50
2018-02-16T20:27:39.309Z,30.90
2018-02-16T20:30:06.807Z,38.83
2018-02-16T20:32:35.094Z,33.70
2018-02-16T20:35:02.589Z,31.93
2018-02-16T20:37:30.101Z,31.63
2018-02-16T20:39:58.366Z,30.00
2018-02-16T20:42:26.625Z,29.70
2018-02-16T20:44:54.146Z,31.00
2018-02-16T20:47:21.642Z,39.20
2018-02-16T20:49:49.161Z,28.87
2018-02-16T20:52:16.653Z,30.77
2018-02-16T20:54:44.149Z,31.80
2018-02-16T20:57:12.427Z,28.40
2018-02-16T20:59:39.921Z,28.30
2018-02-16T21:02:07.437Z,29.37
2018-02-16T21:04:35.703Z,30.10
2018-02-16T21:07:03.975Z,41.77
2018-02-16T21:09:32.258Z,29.30
2018-02-16T21:12:00.526Z,29.67
2018-02-16T21:14:28.821Z,32.00
2018-02-16T21:16:57.086Z,34.23
2018-02-16T21:19:25.345Z,33.03
2018-02-16T21:21:52.865Z,35.07
2018-02-16T21:24:20.357Z,32.87
2018-02-16T21:26:47.878Z,32.30
2018-02-16T21:29:15.374Z,31.20
2018-02-16T21:31:42.869Z,32.43
2018-02-16T21:34:10.393Z,32.10
2018-02-16T21:36:37.893Z,35.47
2018-02-16T21:39:05.409Z,31.87
2018-02-16T21:41:32.905Z,32.20
2018-02-16T21:44:00.401Z,33.00
2018-02-16T21:46:27.926Z,33.93
2018-02-16T21:48:55.426Z,30.73
2018-02-16T21:51:22.946Z,31.50
2018-02-16T21:53:50.437Z,29.00
2018-02-16T21:56:17.938Z,30.30
2018-02-16T21:58:46.221Z,29.20
2018-02-16T22:01:14.489Z,28.17
2018-02-16T22:03:42.771Z,29.60
2018-02-16T22:06:11.033Z,29.83
2018-02-16T22:08:38.530Z,29.77
2018-02-16T22:11:06.065Z,29.13
2018-02-16T22:13:34.330Z,27.80
2018-02-16T22:16:01.847Z,28.40
2018-02-16T22:18:29.337Z,27.13
2018-02-16T22:20:56.836Z,27.87
2018-02-16T22:23:24.358Z,29.00
2018-02-16T22:25:51.854Z,27.67
2018-02-16T22:28:19.373Z,27.07
2018-02-16T22:30:46.865Z,27.57
2018-02-16T22:33:14.362Z,26.00
2018-02-16T22:35:41.878Z,25.23
2018-02-16T22:38:09.408Z,27.27
2018-02-16T22:40:36.913Z,29.20
2018-02-16T22:43:04.405Z,31.23
2018-02-16T22:45:31.901Z,28.70
2018-02-16T22:48:00.181Z,27.43
2018-02-16T22:50:27.677Z,27.10
2018-02-16T22:52:55.193Z,26.53
2018-02-16T22:55:23.454Z,26.63
2018-02-16T22:57:50.945Z,27.17
2018-02-16T23:00:18.461Z,28.97
2018-02-16T23:02:45.958Z,30.10
2018-02-16T23:05:13.514Z,27.37
2018-02-16T23:07:41.757Z,26.53
2018-02-16T23:10:09.245Z,27.60
2018-02-16T23:12:36.768Z,30.90
2018-02-16T23:15:04.261Z,28.63
2018-02-16T23:17:31.785Z,27.93
2018-02-16T23:19:59.277Z,27.43
2018-02-16T23:22:27.542Z,26.70
2018-02-16T23:24:55.830Z,26.40
2018-02-16T23:27:23.332Z,26.60
2018-02-16T23:29:50.857Z,27.40
2018-02-16T23:32:18.349Z,26.67
2018-02-16T23:34:45.845Z,26.97
2018-02-16T23:37:14.130Z,26.20
2018-02-16T23:39:42.394Z,25.73
2018-02-16T23:42:10.677Z,25.93
2018-02-16T23:44:38.885Z,23.17
2018-02-16T23:47:06.378Z,21.47
2018-02-16T23:49:33.894Z,21.67
2018-02-16T23:52:01.395Z,21.53
2018-02-16T23:54:28.914Z,18.30
2018-02-16T23:56:56.419Z,21.20
2018-02-16T23:59:23.921Z,21.10
